sensor_id;sensor_type;location;lat;lon;timestamp;pressure;altitude;pressure_sealevel;temperature;humidity
59531;BME280;45349;48.692;8.186;2023-06-04T00:01:48;98550.69;;;14.66;68.10
59531;BME280;45349;48.692;8.186;2023-06-04T00:04:14;98556.44;;;14.61;67.43
59531;BME280;45349;48.692;8.186;2023-06-04T00:06:42;98554.66;;;14.61;68.72
59531;BME280;45349;48.692;8.186;2023-06-04T00:09:11;98549.13;;;14.56;67.95
59531;BME280;45349;48.692;8.186;2023-06-04T00:11:38;98552.09;;;14.53;68.18
59531;BME280;45349;48.692;8.186;2023-06-04T00:14:05;98552.19;;;14.45;68.42
59531;BME280;45349;48.692;8.186;2023-06-04T00:16:31;98551.53;;;14.43;69.33
59531;BME280;45349;48.692;8.186;2023-06-04T00:19:00;98555.50;;;14.39;69.94
59531;BME280;45349;48.692;8.186;2023-06-04T00:21:27;98551.50;;;14.28;70.43
59531;BME280;45349;48.692;8.186;2023-06-04T00:23:55;98556.13;;;14.26;70.82
59531;BME280;45349;48.692;8.186;2023-06-04T00:26:21;98552.28;;;14.13;70.75
59531;BME280;45349;48.692;8.186;2023-06-04T00:28:48;98557.75;;;14.03;70.58
59531;BME280;45349;48.692;8.186;2023-06-04T00:31:15;98557.75;;;14.03;72.43
59531;BME280;45349;48.692;8.186;2023-06-04T00:33:42;98559.06;;;13.99;72.46
59531;BME280;45349;48.692;8.186;2023-06-04T00:36:08;98554.19;;;13.96;72.27
59531;BME280;45349;48.692;8.186;2023-06-04T00:38:35;98555.41;;;13.85;73.10
59531;BME280;45349;48.692;8.186;2023-06-04T00:41:03;98550.66;;;13.81;73.51
59531;BME280;45349;48.692;8.186;2023-06-04T00:43:30;98552.84;;;13.77;74.26
59531;BME280;45349;48.692;8.186;2023-06-04T00:45:57;98556.44;;;13.76;74.46
59531;BME280;45349;48.692;8.186;2023-06-04T00:48:25;98559.13;;;13.68;75.02
59531;BME280;45349;48.692;8.186;2023-06-04T00:50:53;98558.34;;;13.59;76.25
59531;BME280;45349;48.692;8.186;2023-06-04T00:53:20;98565.72;;;13.55;76.53
59531;BME280;45349;48.692;8.186;2023-06-04T00:55:47;98550.69;;;13.49;76.08
59531;BME280;45349;48.692;8.186;2023-06-04T00:58:15;98555.44;;;13.54;75.74
59531;BME280;45349;48.692;8.186;2023-06-04T01:00:42;98566.59;;;13.48;76.20
59531;BME280;45349;48.692;8.186;2023-06-04T01:03:11;98567.28;;;13.41;76.60
59531;BME280;45349;48.692;8.186;2023-06-04T01:05:46;98565.13;;;13.45;77.00
59531;BME280;45349;48.692;8.186;2023-06-04T01:08:14;98572.44;;;13.58;74.49
59531;BME280;45349;48.692;8.186;2023-06-04T01:10:50;98573.59;;;13.55;74.35
59531;BME280;45349;48.692;8.186;2023-06-04T01:13:18;98569.00;;;13.57;75.82
59531;BME280;45349;48.692;8.186;2023-06-04T01:15:46;98567.72;;;13.53;76.37
59531;BME280;45349;48.692;8.186;2023-06-04T01:18:15;98568.03;;;13.50;76.62
59531;BME280;45349;48.692;8.186;2023-06-04T01:20:56;98564.09;;;13.54;77.15
59531;BME280;45349;48.692;8.186;2023-06-04T01:23:32;98572.16;;;13.53;76.96
59531;BME280;45349;48.692;8.186;2023-06-04T01:26:03;98563.34;;;13.46;77.05
59531;BME280;45349;48.692;8.186;2023-06-04T01:28:33;98568.03;;;13.50;76.58
59531;BME280;45349;48.692;8.186;2023-06-04T01:31:01;98567.75;;;13.45;77.30
59531;BME280;45349;48.692;8.186;2023-06-04T01:33:28;98556.28;;;13.38;77.40
59531;BME280;45349;48.692;8.186;2023-06-04T01:35:58;98554.19;;;13.33;78.88
59531;BME280;45349;48.692;8.186;2023-06-04T01:38:25;98559.56;;;13.32;78.63
59531;BME280;45349;48.692;8.186;2023-06-04T01:40:52;98565.69;;;13.24;78.91
59531;BME280;45349;48.692;8.186;2023-06-04T01:43:24;98564.56;;;13.18;79.33
59531;BME280;45349;48.692;8.186;2023-06-04T01:45:52;98566.69;;;13.14;79.22
59531;BME280;45349;48.692;8.186;2023-06-04T01:48:19;98561.78;;;13.11;80.12
59531;BME280;45349;48.692;8.186;2023-06-04T01:50:46;98563.28;;;13.06;79.66
59531;BME280;45349;48.692;8.186;2023-06-04T01:53:12;98558.53;;;13.01;80.51
59531;BME280;45349;48.692;8.186;2023-06-04T01:55:40;98562.16;;;12.92;81.02
59531;BME280;45349;48.692;8.186;2023-06-04T01:58:06;98562.00;;;12.93;81.99
59531;BME280;45349;48.692;8.186;2023-06-04T02:00:34;98577.88;;;12.92;82.17
59531;BME280;45349;48.692;8.186;2023-06-04T02:03:02;98567.25;;;12.85;81.89
59531;BME280;45349;48.692;8.186;2023-06-04T02:05:30;98565.94;;;12.89;82.05
59531;BME280;45349;48.692;8.186;2023-06-04T02:07:57;98558.41;;;12.94;82.81
59531;BME280;45349;48.692;8.186;2023-06-04T02:10:27;98564.47;;;12.87;82.95
59531;BME280;45349;48.692;8.186;2023-06-04T02:12:55;98557.13;;;12.82;82.50
59531;BME280;45349;48.692;8.186;2023-06-04T02:15:24;98561.38;;;12.83;83.06
59531;BME280;45349;48.692;8.186;2023-06-04T02:17:54;98566.09;;;12.88;82.28
59531;BME280;45349;48.692;8.186;2023-06-04T02:20:25;98559.53;;;12.92;82.40
59531;BME280;45349;48.692;8.186;2023-06-04T02:22:51;98558.06;;;12.97;82.19
59531;BME280;45349;48.692;8.186;2023-06-04T02:25:18;98554.94;;;12.94;83.13
59531;BME280;45349;48.692;8.186;2023-06-04T02:27:44;98556.28;;;12.90;82.08
59531;BME280;45349;48.692;8.186;2023-06-04T02:30:11;98566.28;;;12.86;82.20
59531;BME280;45349;48.692;8.186;2023-06-04T02:32:38;98555.81;;;12.86;82.55
59531;BME280;45349;48.692;8.186;2023-06-04T02:35:05;98559.06;;;12.96;82.26
59531;BME280;45349;48.692;8.186;2023-06-04T02:37:33;98552.84;;;12.89;82.26
59531;BME280;45349;48.692;8.186;2023-06-04T02:40:00;98550.38;;;12.96;81.73
59531;BME280;45349;48.692;8.186;2023-06-04T02:42:26;98550.69;;;12.93;82.01
59531;BME280;45349;48.692;8.186;2023-06-04T02:44:53;98558.81;;;13.14;81.28
59531;BME280;45349;48.692;8.186;2023-06-04T02:47:20;98559.69;;;13.07;81.57
59531;BME280;45349;48.692;8.186;2023-06-04T02:49:46;98549.84;;;13.09;80.76
59531;BME280;45349;48.692;8.186;2023-06-04T02:52:13;98556.06;;;13.08;80.51
59531;BME280;45349;48.692;8.186;2023-06-04T02:54:44;98553.91;;;13.11;80.44
59531;BME280;45349;48.692;8.186;2023-06-04T02:57:11;98556.72;;;13.10;80.85
59531;BME280;45349;48.692;8.186;2023-06-04T02:59:43;98567.34;;;13.17;81.57
59531;BME280;45349;48.692;8.186;2023-06-04T03:02:10;98570.97;;;13.07;81.13
59531;BME280;45349;48.692;8.186;2023-06-04T03:04:43;98567.53;;;13.07;81.08
59531;BME280;45349;48.692;8.186;2023-06-04T03:07:10;98568.34;;;13.07;80.10
59531;BME280;45349;48.692;8.186;2023-06-04T03:10:04;98566.72;;;13.06;80.55
59531;BME280;45349;48.692;8.186;2023-06-04T03:12:30;98570.31;;;13.05;80.08
59531;BME280;45349;48.692;8.186;2023-06-04T03:14:57;98569.50;;;13.05;79.55
59531;BME280;45349;48.692;8.186;2023-06-04T03:17:25;98568.00;;;13.10;79.92
59531;BME280;45349;48.692;8.186;2023-06-04T03:19:51;98571.47;;;13.11;79.84
59531;BME280;45349;48.692;8.186;2023-06-04T03:22:18;98570.47;;;13.12;79.88
59531;BME280;45349;48.692;8.186;2023-06-04T03:24:45;98571.63;;;13.09;79.82
59531;BME280;45349;48.692;8.186;2023-06-04T03:27:13;98579.47;;;13.09;79.59
59531;BME280;45349;48.692;8.186;2023-06-04T03:29:44;98583.91;;;13.09;80.46
59531;BME280;45349;48.692;8.186;2023-06-04T03:32:12;98583.59;;;13.04;81.39
59531;BME280;45349;48.692;8.186;2023-06-04T03:34:45;98590.63;;;13.03;81.44
59531;BME280;45349;48.692;8.186;2023-06-04T03:37:37;98588.69;;;12.97;81.42
59531;BME280;45349;48.692;8.186;2023-06-04T03:40:05;98594.44;;;12.92;81.16
59531;BME280;45349;48.692;8.186;2023-06-04T03:42:36;98590.00;;;12.84;82.55
59531;BME280;45349;48.692;8.186;2023-06-04T03:45:04;98596.41;;;12.82;82.72
59531;BME280;45349;48.692;8.186;2023-06-04T03:47:32;98593.47;;;12.77;83.31
59531;BME280;45349;48.692;8.186;2023-06-04T03:49:58;98588.09;;;12.70;82.95
59531;BME280;45349;48.692;8.186;2023-06-04T03:52:25;98594.13;;;12.62;83.76
59531;BME280;45349;48.692;8.186;2023-06-04T03:54:52;98597.06;;;12.59;83.92
59531;BME280;45349;48.692;8.186;2023-06-04T03:57:19;98602.50;;;12.58;84.70
59531;BME280;45349;48.692;8.186;2023-06-04T03:59:47;98602.97;;;12.53;85.12
59531;BME280;45349;48.692;8.186;2023-06-04T04:02:14;98600.34;;;12.53;86.24
59531;BME280;45349;48.692;8.186;2023-06-04T04:04:43;98600.34;;;12.53;86.28
59531;BME280;45349;48.692;8.186;2023-06-04T04:07:11;98599.38;;;12.54;85.83
59531;BME280;45349;48.692;8.186;2023-06-04T04:09:45;98598.38;;;12.55;86.33
59531;BME280;45349;48.692;8.186;2023-06-04T04:12:12;98599.88;;;12.58;86.70
59531;BME280;45349;48.692;8.186;2023-06-04T04:14:44;98602.50;;;12.58;86.92
59531;BME280;45349;48.692;8.186;2023-06-04T04:17:14;98599.22;;;12.64;86.70
59531;BME280;45349;48.692;8.186;2023-06-04T04:19:43;98601.50;;;12.67;88.06
59531;BME280;45349;48.692;8.186;2023-06-04T04:22:10;98600.34;;;12.69;88.67
59531;BME280;45349;48.692;8.186;2023-06-04T04:24:43;98603.09;;;12.76;89.19
59531;BME280;45349;48.692;8.186;2023-06-04T04:27:10;98608.00;;;12.88;87.49
59531;BME280;45349;48.692;8.186;2023-06-04T04:30:02;98599.81;;;12.99;87.51
59531;BME280;45349;48.692;8.186;2023-06-04T04:32:31;98614.34;;;13.18;87.53
59531;BME280;45349;48.692;8.186;2023-06-04T04:34:58;98610.03;;;13.34;86.36
59531;BME280;45349;48.692;8.186;2023-06-04T04:37:32;98611.47;;;13.53;85.04
59531;BME280;45349;48.692;8.186;2023-06-04T04:39:58;98613.22;;;13.69;84.92
59531;BME280;45349;48.692;8.186;2023-06-04T04:42:29;98616.22;;;13.89;83.91
59531;BME280;45349;48.692;8.186;2023-06-04T04:44:56;98615.47;;;14.03;83.56
59531;BME280;45349;48.692;8.186;2023-06-04T04:47:25;98615.38;;;14.20;82.99
59531;BME280;45349;48.692;8.186;2023-06-04T04:49:53;98619.78;;;14.28;82.80
59531;BME280;45349;48.692;8.186;2023-06-04T04:52:19;98605.91;;;14.34;82.14
59531;BME280;45349;48.692;8.186;2023-06-04T04:54:46;98608.03;;;14.39;81.61
59531;BME280;45349;48.692;8.186;2023-06-04T04:57:15;98612.34;;;14.31;82.23
59531;BME280;45349;48.692;8.186;2023-06-04T04:59:47;98619.69;;;14.36;80.98
59531;BME280;45349;48.692;8.186;2023-06-04T05:02:14;98629.03;;;14.39;81.82
59531;BME280;45349;48.692;8.186;2023-06-04T05:04:46;98629.19;;;14.37;79.37
59531;BME280;45349;48.692;8.186;2023-06-04T05:07:16;98636.03;;;14.23;77.20
59531;BME280;45349;48.692;8.186;2023-06-04T05:09:43;98633.06;;;14.26;77.81
59531;BME280;45349;48.692;8.186;2023-06-04T05:12:10;98637.63;;;14.32;76.52
59531;BME280;45349;48.692;8.186;2023-06-04T05:14:43;98637.56;;;14.17;76.90
59531;BME280;45349;48.692;8.186;2023-06-04T05:17:11;98640.69;;;14.13;77.38
59531;BME280;45349;48.692;8.186;2023-06-04T05:19:44;98642.28;;;14.22;76.81
59531;BME280;45349;48.692;8.186;2023-06-04T05:22:13;98646.28;;;14.33;77.61
59531;BME280;45349;48.692;8.186;2023-06-04T05:24:45;98646.66;;;14.30;77.15
59531;BME280;45349;48.692;8.186;2023-06-04T05:27:11;98647.81;;;14.27;75.56
59531;BME280;45349;48.692;8.186;2023-06-04T05:29:43;98651.50;;;14.41;74.91
59531;BME280;45349;48.692;8.186;2023-06-04T05:32:12;98654.25;;;14.48;75.26
59531;BME280;45349;48.692;8.186;2023-06-04T05:34:43;98657.97;;;14.54;75.18
59531;BME280;45349;48.692;8.186;2023-06-04T05:37:12;98658.75;;;14.63;76.16
59531;BME280;45349;48.692;8.186;2023-06-04T05:39:45;98663.63;;;14.74;76.48
59531;BME280;45349;48.692;8.186;2023-06-04T05:42:14;98662.06;;;14.80;75.89
59531;BME280;45349;48.692;8.186;2023-06-04T05:44:44;98663.63;;;14.89;77.45
59531;BME280;45349;48.692;8.186;2023-06-04T05:47:15;98664.50;;;15.04;76.22
59531;BME280;45349;48.692;8.186;2023-06-04T05:49:44;98658.41;;;15.04;77.08
59531;BME280;45349;48.692;8.186;2023-06-04T05:52:11;98660.50;;;15.09;77.15
59531;BME280;45349;48.692;8.186;2023-06-04T05:54:47;98663.63;;;15.27;76.46
59531;BME280;45349;48.692;8.186;2023-06-04T05:57:14;98659.50;;;15.40;74.24
59531;BME280;45349;48.692;8.186;2023-06-04T05:59:44;98656.16;;;15.61;74.05
59531;BME280;45349;48.692;8.186;2023-06-04T06:02:14;98657.41;;;15.80;74.40
59531;BME280;45349;48.692;8.186;2023-06-04T06:04:43;98663.88;;;15.92;73.98
59531;BME280;45349;48.692;8.186;2023-06-04T06:07:10;98662.28;;;16.13;72.89
59531;BME280;45349;48.692;8.186;2023-06-04T06:10:04;98663.09;;;16.35;71.66
59531;BME280;45349;48.692;8.186;2023-06-04T06:12:33;98657.97;;;16.49;71.16
59531;BME280;45349;48.692;8.186;2023-06-04T06:15:00;98670.28;;;16.63;70.53
59531;BME280;45349;48.692;8.186;2023-06-04T06:17:26;98670.25;;;16.85;67.97
59531;BME280;45349;48.692;8.186;2023-06-04T06:19:54;98674.44;;;17.01;66.29
59531;BME280;45349;48.692;8.186;2023-06-04T06:22:21;98684.03;;;17.09;65.26
59531;BME280;45349;48.692;8.186;2023-06-04T06:24:47;98685.91;;;17.15;63.73
59531;BME280;45349;48.692;8.186;2023-06-04T06:27:16;98697.22;;;17.09;63.53
59531;BME280;45349;48.692;8.186;2023-06-04T06:29:44;98702.94;;;17.13;64.00
59531;BME280;45349;48.692;8.186;2023-06-04T06:32:11;98708.94;;;17.28;62.33
59531;BME280;45349;48.692;8.186;2023-06-04T06:34:43;98715.50;;;17.39;62.71
59531;BME280;45349;48.692;8.186;2023-06-04T06:37:10;98714.50;;;17.40;61.12
59531;BME280;45349;48.692;8.186;2023-06-04T06:40:02;98724.94;;;17.55;62.73
59531;BME280;45349;48.692;8.186;2023-06-04T06:42:33;98724.13;;;17.90;61.46
59531;BME280;45349;48.692;8.186;2023-06-04T06:45:00;98710.09;;;17.89;59.24
59531;BME280;45349;48.692;8.186;2023-06-04T06:47:26;98715.34;;;17.82;58.64
59531;BME280;45349;48.692;8.186;2023-06-04T06:49:53;98715.19;;;17.97;57.89
59531;BME280;45349;48.692;8.186;2023-06-04T06:52:20;98716.25;;;18.03;59.28
59531;BME280;45349;48.692;8.186;2023-06-04T06:54:47;98717.28;;;18.02;59.58
59531;BME280;45349;48.692;8.186;2023-06-04T06:57:13;98718.09;;;18.03;58.05
59531;BME280;45349;48.692;8.186;2023-06-04T06:59:45;98727.53;;;17.83;58.46
59531;BME280;45349;48.692;8.186;2023-06-04T07:02:11;98724.28;;;17.81;59.05
59531;BME280;45349;48.692;8.186;2023-06-04T07:04:43;98726.63;;;17.69;59.61
59531;BME280;45349;48.692;8.186;2023-06-04T07:07:10;98725.16;;;17.60;60.12
59531;BME280;45349;48.692;8.186;2023-06-04T07:09:40;98734.44;;;17.49;62.11
59531;BME280;45349;48.692;8.186;2023-06-04T07:12:07;98732.47;;;17.30;60.37
59531;BME280;45349;48.692;8.186;2023-06-04T07:14:33;98746.41;;;17.52;59.86
59531;BME280;45349;48.692;8.186;2023-06-04T07:17:01;98745.16;;;17.76;59.08
59531;BME280;45349;48.692;8.186;2023-06-04T07:19:28;98743.13;;;18.13;57.00
59531;BME280;45349;48.692;8.186;2023-06-04T07:21:55;98748.56;;;18.67;55.33
59531;BME280;45349;48.692;8.186;2023-06-04T07:24:22;98742.72;;;18.92;55.11
59531;BME280;45349;48.692;8.186;2023-06-04T07:26:49;98735.00;;;19.11;52.33
59531;BME280;45349;48.692;8.186;2023-06-04T07:29:16;98744.28;;;19.81;51.48
59531;BME280;45349;48.692;8.186;2023-06-04T07:31:42;98752.69;;;20.30;51.23
59531;BME280;45349;48.692;8.186;2023-06-04T07:34:10;98751.22;;;20.41;48.86
59531;BME280;45349;48.692;8.186;2023-06-04T07:36:37;98749.94;;;20.04;49.22
59531;BME280;45349;48.692;8.186;2023-06-04T07:39:03;98750.38;;;20.47;48.08
59531;BME280;45349;48.692;8.186;2023-06-04T07:41:33;98745.38;;;20.64;47.56
59531;BME280;45349;48.692;8.186;2023-06-04T07:43:59;98742.47;;;20.33;48.19
59531;BME280;45349;48.692;8.186;2023-06-04T07:46:27;98748.13;;;20.44;47.89
59531;BME280;45349;48.692;8.186;2023-06-04T07:48:53;98747.22;;;20.18;48.92
59531;BME280;45349;48.692;8.186;2023-06-04T07:51:21;98739.38;;;19.98;51.23
59531;BME280;45349;48.692;8.186;2023-06-04T07:53:48;98745.19;;;20.20;49.75
59531;BME280;45349;48.692;8.186;2023-06-04T07:56:15;98747.50;;;19.96;48.13
59531;BME280;45349;48.692;8.186;2023-06-04T07:58:41;98751.59;;;19.85;49.82
59531;BME280;45349;48.692;8.186;2023-06-04T08:01:09;98744.69;;;19.77;49.38
59531;BME280;45349;48.692;8.186;2023-06-04T08:03:35;98740.25;;;19.65;51.42
59531;BME280;45349;48.692;8.186;2023-06-04T08:06:02;98744.88;;;19.83;51.50
59531;BME280;45349;48.692;8.186;2023-06-04T08:08:30;98752.47;;;19.66;52.02
59531;BME280;45349;48.692;8.186;2023-06-04T08:10:59;98750.41;;;19.74;51.97
59531;BME280;45349;48.692;8.186;2023-06-04T08:13:25;98761.81;;;19.68;51.52
59531;BME280;45349;48.692;8.186;2023-06-04T08:15:52;98753.22;;;20.00;51.12
59531;BME280;45349;48.692;8.186;2023-06-04T08:18:19;98756.84;;;20.12;50.29
59531;BME280;45349;48.692;8.186;2023-06-04T08:20:45;98751.78;;;19.97;50.84
59531;BME280;45349;48.692;8.186;2023-06-04T08:23:12;98746.81;;;20.21;50.68
59531;BME280;45349;48.692;8.186;2023-06-04T08:25:40;98754.66;;;20.48;49.43
59531;BME280;45349;48.692;8.186;2023-06-04T08:28:06;98748.06;;;20.57;49.25
59531;BME280;45349;48.692;8.186;2023-06-04T08:30:33;98745.44;;;20.50;49.32
59531;BME280;45349;48.692;8.186;2023-06-04T08:33:01;98752.44;;;20.38;49.61
59531;BME280;45349;48.692;8.186;2023-06-04T08:35:27;98751.81;;;20.36;48.62
59531;BME280;45349;48.692;8.186;2023-06-04T08:37:54;98754.28;;;20.70;48.45
59531;BME280;45349;48.692;8.186;2023-06-04T08:40:20;98755.97;;;20.64;48.84
59531;BME280;45349;48.692;8.186;2023-06-04T08:42:50;98762.09;;;21.22;47.89
59531;BME280;45349;48.692;8.186;2023-06-04T08:45:20;98766.72;;;21.77;45.70
59531;BME280;45349;48.692;8.186;2023-06-04T08:47:48;98768.16;;;21.99;46.47
59531;BME280;45349;48.692;8.186;2023-06-04T08:50:18;98771.44;;;22.31;45.39
59531;BME280;45349;48.692;8.186;2023-06-04T08:52:45;98774.25;;;22.67;45.32
59531;BME280;45349;48.692;8.186;2023-06-04T08:55:13;98776.78;;;22.62;43.87
59531;BME280;45349;48.692;8.186;2023-06-04T08:57:42;98772.84;;;22.95;42.22
59531;BME280;45349;48.692;8.186;2023-06-04T09:00:11;98788.88;;;22.88;42.59
59531;BME280;45349;48.692;8.186;2023-06-04T09:02:38;98793.69;;;23.10;42.71
59531;BME280;45349;48.692;8.186;2023-06-04T09:05:06;98796.47;;;23.15;42.32
59531;BME280;45349;48.692;8.186;2023-06-04T09:07:35;98796.94;;;23.12;41.98
59531;BME280;45349;48.692;8.186;2023-06-04T09:10:02;98801.63;;;23.28;41.50
59531;BME280;45349;48.692;8.186;2023-06-04T09:12:30;98802.69;;;23.75;40.34
59531;BME280;45349;48.692;8.186;2023-06-04T09:14:58;98802.91;;;23.50;41.54
59531;BME280;45349;48.692;8.186;2023-06-04T09:17:27;98804.84;;;23.19;42.65
59531;BME280;45349;48.692;8.186;2023-06-04T09:19:54;98805.31;;;22.85;43.06
59531;BME280;45349;48.692;8.186;2023-06-04T09:22:31;98810.31;;;23.24;42.40
59531;BME280;45349;48.692;8.186;2023-06-04T09:24:58;98808.22;;;23.50;41.34
59531;BME280;45349;48.692;8.186;2023-06-04T09:27:24;98807.66;;;23.83;41.07
59531;BME280;45349;48.692;8.186;2023-06-04T09:29:54;98805.06;;;24.12;41.65
59531;BME280;45349;48.692;8.186;2023-06-04T09:32:22;98807.78;;;24.41;39.86
59531;BME280;45349;48.692;8.186;2023-06-04T09:34:50;98802.25;;;24.31;39.54
59531;BME280;45349;48.692;8.186;2023-06-04T09:37:18;98805.06;;;23.88;40.44
59531;BME280;45349;48.692;8.186;2023-06-04T09:39:52;98797.69;;;23.55;41.57
59531;BME280;45349;48.692;8.186;2023-06-04T09:42:20;98794.19;;;23.19;41.20
59531;BME280;45349;48.692;8.186;2023-06-04T09:44:47;98794.13;;;23.49;41.23
59531;BME280;45349;48.692;8.186;2023-06-04T09:47:14;98793.94;;;23.08;41.08
59531;BME280;45349;48.692;8.186;2023-06-04T09:49:44;98794.84;;;23.14;41.57
59531;BME280;45349;48.692;8.186;2023-06-04T09:52:12;98785.31;;;22.82;42.23
59531;BME280;45349;48.692;8.186;2023-06-04T09:54:43;98781.41;;;23.09;41.57
59531;BME280;45349;48.692;8.186;2023-06-04T09:57:19;98777.47;;;22.99;42.00
59531;BME280;45349;48.692;8.186;2023-06-04T09:59:49;98779.69;;;23.14;42.24
59531;BME280;45349;48.692;8.186;2023-06-04T10:02:19;98767.53;;;23.07;42.16
59531;BME280;45349;48.692;8.186;2023-06-04T10:04:55;98771.59;;;23.09;43.24
59531;BME280;45349;48.692;8.186;2023-06-04T10:07:24;98768.16;;;23.33;41.70
59531;BME280;45349;48.692;8.186;2023-06-04T10:09:52;98763.94;;;23.13;41.49
59531;BME280;45349;48.692;8.186;2023-06-04T10:12:23;98761.03;;;23.03;42.05
59531;BME280;45349;48.692;8.186;2023-06-04T10:14:53;98760.88;;;23.28;43.08
59531;BME280;45349;48.692;8.186;2023-06-04T10:17:22;98755.28;;;23.41;41.99
59531;BME280;45349;48.692;8.186;2023-06-04T10:19:51;98749.03;;;23.48;41.59
59531;BME280;45349;48.692;8.186;2023-06-04T10:22:20;98756.13;;;23.66;40.04
59531;BME280;45349;48.692;8.186;2023-06-04T10:24:48;98748.13;;;23.66;39.47
59531;BME280;45349;48.692;8.186;2023-06-04T10:27:16;98748.16;;;23.30;40.43
59531;BME280;45349;48.692;8.186;2023-06-04T10:29:46;98745.00;;;23.45;39.58
59531;BME280;45349;48.692;8.186;2023-06-04T10:32:12;98739.44;;;23.58;40.48
59531;BME280;45349;48.692;8.186;2023-06-04T10:34:44;98745.78;;;23.69;39.27
59531;BME280;45349;48.692;8.186;2023-06-04T10:37:18;98738.59;;;23.82;39.09
59531;BME280;45349;48.692;8.186;2023-06-04T10:39:51;98735.84;;;23.53;39.08
59531;BME280;45349;48.692;8.186;2023-06-04T10:42:19;98731.31;;;23.65;39.05
59531;BME280;45349;48.692;8.186;2023-06-04T10:44:47;98737.69;;;23.76;39.14
59531;BME280;45349;48.692;8.186;2023-06-04T10:47:21;98730.00;;;23.80;38.36
59531;BME280;45349;48.692;8.186;2023-06-04T10:49:49;98720.59;;;24.01;38.00
59531;BME280;45349;48.692;8.186;2023-06-04T10:52:16;98719.91;;;24.06;38.47
59531;BME280;45349;48.692;8.186;2023-06-04T10:54:44;98727.34;;;24.32;36.91
59531;BME280;45349;48.692;8.186;2023-06-04T10:57:14;98725.53;;;24.21;36.37
59531;BME280;45349;48.692;8.186;2023-06-04T10:59:53;98727.56;;;24.31;36.68
59531;BME280;45349;48.692;8.186;2023-06-04T11:02:20;98725.91;;;24.13;36.43
59531;BME280;45349;48.692;8.186;2023-06-04T11:04:46;98729.19;;;24.32;35.65
59531;BME280;45349;48.692;8.186;2023-06-04T11:07:14;98714.97;;;24.43;35.81
59531;BME280;45349;48.692;8.186;2023-06-04T11:09:48;98712.16;;;24.50;36.46
59531;BME280;45349;48.692;8.186;2023-06-04T11:12:16;98708.31;;;24.29;37.48
59531;BME280;45349;48.692;8.186;2023-06-04T11:14:53;98714.63;;;24.40;37.09
59531;BME280;45349;48.692;8.186;2023-06-04T11:17:20;98708.22;;;24.70;36.76
59531;BME280;45349;48.692;8.186;2023-06-04T11:19:46;98713.91;;;25.08;36.66
59531;BME280;45349;48.692;8.186;2023-06-04T11:22:14;98706.59;;;25.20;35.65
59531;BME280;45349;48.692;8.186;2023-06-04T11:24:44;98706.38;;;25.22;36.37
59531;BME280;45349;48.692;8.186;2023-06-04T11:27:10;98702.53;;;25.34;34.81
59531;BME280;45349;48.692;8.186;2023-06-04T11:29:49;98702.34;;;25.58;34.20
59531;BME280;45349;48.692;8.186;2023-06-04T11:32:21;98703.81;;;24.75;33.60
59531;BME280;45349;48.692;8.186;2023-06-04T11:34:48;98710.84;;;24.82;34.18
59531;BME280;45349;48.692;8.186;2023-06-04T11:37:18;98710.75;;;24.94;34.03
59531;BME280;45349;48.692;8.186;2023-06-04T11:39:45;98706.53;;;25.15;34.62
59531;BME280;45349;48.692;8.186;2023-06-04T11:42:12;98701.81;;;25.39;33.16
59531;BME280;45349;48.692;8.186;2023-06-04T11:44:45;98705.28;;;25.40;32.85
59531;BME280;45349;48.692;8.186;2023-06-04T11:47:14;98707.16;;;25.39;32.89
59531;BME280;45349;48.692;8.186;2023-06-04T11:49:43;98708.34;;;25.48;33.32
59531;BME280;45349;48.692;8.186;2023-06-04T11:52:11;98703.09;;;25.54;32.67
59531;BME280;45349;48.692;8.186;2023-06-04T11:54:43;98703.84;;;25.15;32.61
59531;BME280;45349;48.692;8.186;2023-06-04T11:57:10;98698.50;;;25.32;32.45
59531;BME280;45349;48.692;8.186;2023-06-04T12:00:04;98699.53;;;25.48;32.42
59531;BME280;45349;48.692;8.186;2023-06-04T12:02:34;98695.81;;;25.49;32.67
59531;BME280;45349;48.692;8.186;2023-06-04T12:05:10;98692.53;;;25.64;31.75
59531;BME280;45349;48.692;8.186;2023-06-04T12:07:37;98692.84;;;25.90;31.92
59531;BME280;45349;48.692;8.186;2023-06-04T12:10:06;98685.50;;;25.58;32.51
59531;BME280;45349;48.692;8.186;2023-06-04T12:12:33;98692.81;;;25.45;32.60
59531;BME280;45349;48.692;8.186;2023-06-04T12:15:00;98688.06;;;25.30;32.96
59531;BME280;45349;48.692;8.186;2023-06-04T12:17:28;98688.84;;;25.48;32.18
59531;BME280;45349;48.692;8.186;2023-06-04T12:19:54;98690.47;;;25.71;32.85
59531;BME280;45349;48.692;8.186;2023-06-04T12:22:22;98693.72;;;25.34;32.14
59531;BME280;45349;48.692;8.186;2023-06-04T12:24:50;98699.00;;;25.29;32.51
59531;BME280;45349;48.692;8.186;2023-06-04T12:27:19;98690.16;;;24.89;32.86
59531;BME280;45349;48.692;8.186;2023-06-04T12:29:55;98688.88;;;25.14;32.62
59531;BME280;45349;48.692;8.186;2023-06-04T12:32:21;98687.91;;;25.20;32.21
59531;BME280;45349;48.692;8.186;2023-06-04T12:34:49;98688.91;;;24.97;32.50
59531;BME280;45349;48.692;8.186;2023-06-04T12:37:16;98696.19;;;25.01;32.87
59531;BME280;45349;48.692;8.186;2023-06-04T12:39:43;98698.22;;;24.94;32.46
59531;BME280;45349;48.692;8.186;2023-06-04T12:42:10;98684.72;;;25.01;32.99
59531;BME280;45349;48.692;8.186;2023-06-04T12:45:03;98683.63;;;25.19;32.20
59531;BME280;45349;48.692;8.186;2023-06-04T12:47:30;98683.47;;;25.26;32.33
59531;BME280;45349;48.692;8.186;2023-06-04T12:49:58;98696.00;;;25.25;32.80
59531;BME280;45349;48.692;8.186;2023-06-04T12:52:26;98691.75;;;25.46;31.51
59531;BME280;45349;48.692;8.186;2023-06-04T12:54:52;98680.72;;;25.60;32.78
59531;BME280;45349;48.692;8.186;2023-06-04T12:57:19;98691.22;;;25.67;31.55
59531;BME280;45349;48.692;8.186;2023-06-04T12:59:45;98697.50;;;24.99;31.98
59531;BME280;45349;48.692;8.186;2023-06-04T13:02:12;98684.69;;;25.18;31.67
59531;BME280;45349;48.692;8.186;2023-06-04T13:04:43;98687.28;;;25.13;33.01
59531;BME280;45349;48.692;8.186;2023-06-04T13:07:12;98691.72;;;25.24;32.61
59531;BME280;45349;48.692;8.186;2023-06-04T13:09:43;98699.72;;;25.41;32.02